Station: Lucas Heights (Ansto)  

  Atmospheric Gas Attenuation - ITU Rec 676-11   ----------------- dB/100km -----------------
Date Time Temp RH % AH g/m3 Dew Point Wind Direction Speed kph Gust kph Barometer mB Rainfall Since 9am 24GHz 47GHz 76GHz 122GHz 134GHz 241GHz
08/05 12:15 17.9 40 6.11 4.1 26 39 1013.1 0 14.1 21.1 28.8 75.1 63.7 217.2
08/05 12:00 17.6 40 6 4 28 41 1013.1 0 13.9 21.0 28.5 74.4 62.6 213.6
08/05 11:45 17.3 41 6.04 4.2 24 39 1013.1 0 14.0 21.1 28.8 75.0 63.3 216.0
08/05 11:30 16.8 43 6.15 4.1 30 43 1013.1 0 14.3 21.4 29.3 76.5 65.0 221.8
08/05 11:15 16.7 43 6.11 4.1 26 41 1013.1 0 14.2 21.4 29.2 76.2 64.6 220.4
08/05 11:00 16.4 43 6 4 30 41 1013.1 0 14.0 21.3 28.9 75.5 63.6 216.8
08/05 10:45 16 44 5.99 3.7 32 43 1013.1 0 14.0 21.4 29.0 75.7 63.8 217.4
08/05 10:30 15.9 45 6.09 4.1 26 41 1013.1 0 14.2 21.5 29.4 76.8 65.0 221.8
08/05 10:15 15.7 47 6.29 4.4 26 41 1013.1 0 14.6 21.9 30.2 78.9 67.5 230.6
08/05 10:00 15.2 47 6.1 4.2 28 46 1013.1 0 14.2 21.7 29.7 77.5 65.7 224.1
08/05 09:45 14.8 49 6.21 4.4 22 39 1013.1 0 14.5 21.9 30.3 79.0 67.4 229.8
08/05 09:30 14.2 50 6.11 4.1 20 33 1013.1 0 14.3 21.9 30.1 78.6 66.7 227.3
08/05 09:15 13.7 52 6.16 4.2 19 28 1013.1 0 14.4 22.1 30.5 79.6 67.7 230.8
08/05 09:00 13.2 53 6.09 3.9 19 30 1013.1 0 14.3 22.2 30.4 79.4 67.3 229.3
08/05 08:45 12.8 54 6.05 3.9 15 26 1013.1 0 14.2 22.2 30.4 79.4 67.1 228.7
08/05 08:30 12.1 57 6.11 3.9 17 22 1013.1 0 14.4 22.5 30.9 80.7 68.5 233.3
08/05 08:15 11.6 58 6.03 3.7 11 22 1013.1 0 14.2 22.5 30.8 80.4 67.9 231.3
08/05 08:00 10.8 60 5.93 3.4 15 22 1013.1 0 14.0 22.5 30.7 80.2 67.4 229.3
08/05 07:45 10 62 5.83 3.1 15 20 1013.1 0 13.8 22.6 30.7 80.0 66.8 227.2
08/05 07:30 9 64 5.64 2.6 11 20 1013.1 0 13.5 22.5 30.3 79.1 65.2 221.7
08/05 07:15 8.9 64 5.61 2.5 11 19 1013.1 0 13.4 22.5 30.2 78.9 65.0 220.6
08/05 07:00 8.6 65 5.59 2.5 15 26 1013.1 0 13.4 22.5 30.3 79.0 65.0 220.6
08/05 06:45 8.2 67 5.61 2.4 15 26 1013.1 0 13.4 22.7 30.5 79.6 65.5 222.6
08/05 06:30 8.2 65 5.45 2.1 15 24 1013.1 0 13.1 22.4 29.9 77.9 63.5 215.5
08/05 06:15 8.1 65 5.41 2 15 22 1013.1 0 13.0 22.4 29.8 77.6 63.1 214.0
08/05 06:00 7.5 67 5.37 1.9 13 22 1013.1 0 12.9 22.5 29.8 77.8 63.1 213.8
08/05 05:45 7 67 5.19 1.4 9 13 1013.1 0 12.6 22.3 29.3 76.4 61.2 207.1
08/05 05:30 7.2 66 5.18 1.3 11 19 1013.1 0 12.5 22.2 29.2 76.1 60.9 206.2
08/05 05:15 7.7 64 5.19 1.3 13 19 1013.1 0 12.5 22.1 29.1 75.8 60.6 205.3
08/05 05:00 8.1 63 5.24 1.5 15 20 1013.1 0 12.6 22.1 29.1 75.9 61.0 206.5
08/05 04:45 7.9 64 5.26 1.6 20 24 1013.1 0 12.7 22.2 29.3 76.3 61.4 207.9
08/05 04:30 8.2 62 5.19 1.4 22 28 1013.1 0 12.5 22.0 28.9 75.3 60.3 204.0
08/05 04:15 8.2 61 5.11 1.2 20 28 1013.1 0 12.4 21.9 28.6 74.5 59.3 200.6
08/05 04:00 8.2 61 5.11 1.1 19 26 1013.1 0 12.4 21.9 28.6 74.5 59.3 200.6
08/05 03:45 8.1 61 5.08 1.1 20 30 1013.1 0 12.3 21.9 28.5 74.3 59.0 199.5
08/05 03:30 7.9 61 5.01 0.8 26 33 1013.1 0 12.2 21.8 28.3 73.8 58.3 196.9
08/05 03:15 7.9 60 4.93 0.7 30 33 1013.1 0 12.0 21.7 28.0 73.0 57.3 193.5
08/05 03:00 7.9 61 5.01 0.8 30 33 1013.1 0 12.2 21.8 28.3 73.8 58.3 196.9
08/05 02:45 8 59 4.88 0.6 26 32 1013.1 0 11.9 21.6 27.8 72.4 56.6 191.1
08/05 02:30 8.1 58 4.83 0.3 24 28 1013.1 0 11.8 21.5 27.6 71.8 55.9 188.7
08/05 02:15 8.2 57 4.78 0.3 28 30 1013.1 0 11.7 21.4 27.4 71.2 55.2 186.3
08/05 02:00 8.1 57 4.74 0.2 26 33 1013.1 0 11.6 21.4 27.3 70.9 54.8 184.8
08/05 01:45 8.2 56 4.69 0.1 26 33 1013.1 0 11.5 21.3 27.0 70.3 54.1 182.4
08/05 01:30 8.2 56 4.69 0 22 30 1013.1 0 11.5 21.3 27.0 70.3 54.1 182.4
08/05 01:15 8.3 55 4.64 -0.2 20 32 1013.1 0 11.4 21.2 26.8 69.7 53.4 180.1
08/05 01:00 8.4 54 4.58 -0.4 20 28 1013.1 0 11.2 21.1 26.6 69.1 52.6 177.3
08/05 00:45 8.4 53 4.5 -0.6 17 24 1013.1 0 11.0 20.9 26.3 68.3 51.7 173.9
08/05 00:30 8.5 53 4.53 -0.5 19 28 1013.1 0 11.1 21.0 26.4 68.5 52.0 175.0
08/05 00:00 8.7 51 4.41 -0.8 19 28 1013.1 0 10.8 20.7 25.9 67.2 50.4 169.5
07/05 23:45 8.7 51 4.41 -0.7 20 30 1013.1 0 10.8 20.7 25.9 67.2 50.4 169.5
07/05 23:30 8.6 52 4.47 -0.7 22 32 1013.1 0 11.0 20.8 26.1 67.8 51.2 172.2
07/05 23:15 8.6 52 4.47 -0.7 20 28 1013.1 0 11.0 20.8 26.1 67.8 51.2 172.2
07/05 23:00 8.9 50 4.38 -0.8 20 30 1013.1 0 10.8 20.6 25.7 66.7 49.9 167.8
07/05 22:45 9.1 49 4.35 -0.9 26 32 1013.1 0 10.7 20.6 25.5 66.2 49.4 166.1
07/05 22:30 9.3 49 4.4 -0.9 28 39 1013.1 0 10.8 20.6 25.6 66.6 49.9 167.8
07/05 22:15 9.5 48 4.37 -0.9 28 39 1013.1 0 10.7 20.5 25.5 66.1 49.4 166.1
07/05 22:00 9.5 47 4.28 -1.1 26 37 1013.1 0 10.5 20.4 25.1 65.2 48.4 162.4
07/05 21:45 9.8 47 4.36 -1 24 37 1013.1 0 10.7 20.4 25.3 65.8 49.1 165.1
07/05 21:30 9.8 47 4.36 -0.9 22 33 1013.1 0 10.7 20.4 25.3 65.8 49.1 165.1
07/05 21:15 10 46 4.32 -1 20 33 1013.1 0 10.6 20.3 25.1 65.2 48.5 163.1
07/05 21:00 10.2 45 4.28 -1.2 20 30 1013.1 0 10.5 20.2 24.9 64.7 48.0 161.0
07/05 20:45 10.2 44 4.19 -1.5 26 41 1013.1 0 10.3 20.1 24.6 63.8 46.9 157.3
07/05 20:30 10.2 43 4.09 -1.7 28 44 1013.1 0 10.1 19.9 24.3 62.9 45.7 153.3
07/05 20:15 10 44 4.14 -1.7 26 43 1013.1 0 10.2 20.1 24.5 63.5 46.4 155.7
07/05 20:00 9.9 44 4.11 -1.8 24 35 1013.1 0 10.2 20.0 24.4 63.3 46.2 154.7
07/05 19:45 10.3 42 4.02 -1.9 22 33 1013.1 0 10.0 19.8 24.0 62.2 44.9 150.2
07/05 19:30 10.5 42 4.07 -1.9 26 33 1013.1 0 10.1 19.9 24.1 62.5 45.3 151.9
07/05 19:15 10.7 41 4.03 -2 24 33 1013.1 0 10.0 19.8 23.9 62.0 44.8 149.9
07/05 19:00 11 40 4 -2.1 28 37 1013.1 0 9.9 19.7 23.7 61.5 44.3 148.2
07/05 18:45 11.1 40 4.03 -2 28 41 1013.1 0 10.0 19.7 23.8 61.7 44.6 149.2
07/05 18:30 11.2 39 3.95 -2 22 33 1013.1 0 9.8 19.5 23.5 60.8 43.6 145.8
07/05 18:15 11.4 39 4 -2.1 26 37 1013.1 0 9.9 19.6 23.6 61.2 44.1 147.4
07/05 18:00 11.5 38 3.93 -2.2 26 46 1013.1 0 9.7 19.5 23.3 60.4 43.2 144.5
07/05 17:45 11.7 39 4.08 -1.7 22 39 1013.1 0 10.1 19.6 23.8 61.7 44.8 150.1
07/05 17:30 12 38 4.05 -1.7 20 32 1013.1 0 10.0 19.5 23.6 61.2 44.3 148.4
07/05 17:15 12.2 37 3.99 -2 26 41 1013.1 0 9.9 19.4 23.4 60.5 43.5 145.6
07/05 17:00 12.6 35 3.87 -2.2 32 50 1013.1 0 9.6 19.1 22.8 59.1 42.0 140.2
07/05 16:45 12.8 34 3.81 -2.4 30 50 1013.1 0 9.5 19.0 22.6 58.4 41.2 137.6
07/05 16:30 13.1 33 3.77 -2.6 32 46 1013.1 0 9.4 18.9 22.4 57.8 40.6 135.5
07/05 16:15 13.6 32 3.77 -2.7 28 48 1013.1 0 9.4 18.8 22.2 57.5 40.4 134.7
07/05 16:00 13.8 31 3.69 -2.8 32 50 1013.1 0 9.2 18.7 21.9 56.7 39.4 131.3
07/05 15:45 14.1 30 3.64 -3 30 50 1013.1 0 9.1 18.5 21.7 56.0 38.7 128.9
07/05 15:30 14.3 29 3.56 -3.4 33 50 1013.1 0 8.9 18.4 21.4 55.2 37.8 125.6
07/05 15:15 14.5 29 3.61 -3.1 30 50 1013.1 0 9.0 18.4 21.5 55.5 38.2 127.2
07/05 15:00 14.6 28 3.5 -3.6 30 50 1013.1 0 8.8 18.3 21.1 54.5 37.0 122.9
07/05 14:45 14.9 27 3.44 -3.8 35 52 1013.1 0 8.6 18.1 20.8 53.8 36.2 120.2
07/05 14:30 14.9 28 3.57 -3.4 26 41 1013.1 0 8.9 18.3 21.3 54.9 37.6 125.1
07/05 14:15 14.8 27 3.42 -3.9 30 46 1013.1 0 8.6 18.1 20.8 53.6 36.0 119.6
07/05 14:00 15.4 27 3.55 -3.5 30 46 1013.1 0 8.8 18.2 21.1 54.4 37.1 123.6
07/05 13:45 15.3 26 3.4 -4 30 54 1013.1 0 8.5 18.0 20.6 53.2 35.6 118.2
07/05 13:30 15.3 25 3.26 -4.3 37 56 1013.1 0 8.2 17.8 20.2 52.0 34.1 113.0
07/05 13:15 15.5 25 3.3 -4.3 33 57 1013.1 0 8.3 17.8 20.2 52.2 34.5 114.2
07/05 13:00 15.5 24 3.17 -4.9 30 41 1013.1 0 8.0 17.7 19.8 51.1 33.1 109.5
07/05 12:45 15.6 24 3.19 -4.9 30 46 1013.1 0 8.1 17.7 19.9 51.2 33.3 110.1
07/05 12:30 15.4 23 3.02 -5.6 33 52 1013.1 0 7.7 17.5 19.4 49.9 31.6 104.1
07/05 12:15 15.4 22 2.89 -6.3 33 50 1013.1 0 7.5 17.3 19.0 48.8 30.3 99.4
07/05 12:00 15.4 22 2.89 -6.2 35 50 1013.1 0 7.5 17.3 19.0 48.8 30.3 99.4
07/05 11:45 15.6 24 3.19 -5 33 52 1013.1 0 8.1 17.7 19.9 51.2 33.3 110.1
07/05 11:30 15.5 30 3.97 -2 28 44 1013.1 0 9.7 18.7 22.4 57.9 41.6 139.2
07/05 11:15 14.7 34 4.28 -0.7 30 44 1013.1 0 10.4 19.3 23.6 61.2 45.4 152.4

Last Refresh: 08-May-2026 12:08:51

Bureau of Meteorology